Time;durP1;ratioP1;P1;durP2;ratioP2;P2;SDS_P1;SDS_P2;PMS_P1;PMS_P2;Temp;Humidity;BMP_temperature;BMP_pressure;BME280_temperature;BME280_humidity;BME280_pressure;Samples;Min_cycle;Max_cycle;Signal;HPM_P1;HPM_P2
2022/03/13 00:00:59;;;;;;;12.73;9.07;;;;;;;13.00;45.92;101413.91;5029752;28;20420;-63
2022/03/13 00:03:26;;;;;;;12.10;9.63;;;;;;;12.88;46.58;101406.75;5029974;28;20119;-63
2022/03/13 00:05:52;;;;;;;12.40;8.70;;;;;;;12.91;46.33;101397.88;5029444;28;20048;-63
2022/03/13 00:08:31;;;;;;;10.88;8.95;;;;;;;12.87;46.73;101414.28;5029892;28;20443;-63
2022/03/13 00:11:07;;;;;;;11.30;8.25;;;;;;;12.89;46.51;101412.09;5030383;28;20033;-63
2022/03/13 00:13:37;;;;;;;11.23;8.55;;;;;;;12.88;46.42;101415.94;5030392;28;20029;-63
2022/03/13 00:16:08;;;;;;;17.95;8.82;;;;;;;12.80;46.59;101410.81;5029770;28;20056;-63
2022/03/13 00:18:35;;;;;;;9.75;7.90;;;;;;;12.79;46.95;101400.78;5030466;28;20037;-63
2022/03/13 00:21:04;;;;;;;13.38;8.38;;;;;;;12.73;46.85;101405.44;5030023;28;20036;-63
2022/03/13 00:23:34;;;;;;;10.93;8.00;;;;;;;12.75;47.10;101414.34;5028937;28;20040;-63
2022/03/13 00:26:04;;;;;;;10.60;8.48;;;;;;;12.72;46.97;101402.88;5024447;28;20034;-63
2022/03/13 00:28:30;;;;;;;10.85;8.73;;;;;;;12.72;46.77;101400.09;5030304;28;20564;-63
2022/03/13 00:30:56;;;;;;;12.52;8.73;;;;;;;12.73;47.08;101399.84;5029761;28;20052;-63
2022/03/13 00:33:21;;;;;;;11.20;8.82;;;;;;;12.71;47.59;101390.91;5030677;28;20484;-63
2022/03/13 00:35:47;;;;;;;13.27;10.10;;;;;;;12.73;47.28;101379.50;5029581;28;20101;-63
2022/03/13 00:38:12;;;;;;;19.27;12.10;;;;;;;12.71;47.05;101378.91;5030523;28;20030;-63
2022/03/13 00:40:39;;;;;;;17.30;10.77;;;;;;;12.79;46.98;101370.13;5026784;28;20055;-63
2022/03/13 00:43:05;;;;;;;22.80;14.05;;;;;;;12.80;46.90;101377.38;5029758;28;20033;-63
2022/03/13 00:45:30;;;;;;;17.27;11.18;;;;;;;12.84;46.67;101372.16;5029220;28;20428;-63
2022/03/13 00:47:59;;;;;;;22.00;14.23;;;;;;;12.76;46.66;101373.41;5029782;28;20388;-63
2022/03/13 00:50:25;;;;;;;15.25;10.38;;;;;;;12.82;46.71;101383.56;5014683;28;20032;-63
2022/03/13 00:52:51;;;;;;;12.85;9.32;;;;;;;12.76;46.95;101373.41;5030582;28;20415;-63
2022/03/13 00:55:16;;;;;;;22.73;16.25;;;;;;;12.82;46.48;101377.97;5030206;28;20564;-63
2022/03/13 00:57:44;;;;;;;16.02;11.55;;;;;;;12.78;46.46;101371.22;5031460;28;20049;-63
2022/03/13 01:00:13;;;;;;;11.43;9.38;;;;;;;12.78;46.59;101374.03;5033866;28;20037;-64
2022/03/13 01:02:39;;;;;;;14.65;9.73;;;;;;;12.75;46.91;101360.59;5033891;28;20037;-63
2022/03/13 01:05:08;;;;;;;14.85;10.23;;;;;;;12.73;46.78;101360.00;5033717;28;20017;-63
2022/03/13 01:07:33;;;;;;;12.45;8.88;;;;;;;12.68;47.30;101360.75;5034143;28;20037;-64
2022/03/13 01:09:58;;;;;;;17.80;12.90;;;;;;;12.72;46.88;101361.09;5034123;28;20022;-63
2022/03/13 01:12:23;;;;;;;23.52;15.73;;;;;;;12.72;47.23;101349.97;5029350;28;20033;-63
2022/03/13 01:14:49;;;;;;;12.25;9.68;;;;;;;12.68;47.29;101352.41;5034037;28;20061;-64
2022/03/13 01:17:18;;;;;;;10.48;8.35;;;;;;;12.71;47.17;101351.06;5033288;28;20025;-63
2022/03/13 01:19:43;;;;;;;10.40;8.57;;;;;;;12.62;47.52;101345.09;5032834;28;20017;-64
2022/03/13 01:22:11;;;;;;;12.20;9.32;;;;;;;12.65;47.40;101338.97;5034044;28;20079;-63
2022/03/13 01:24:43;;;;;;;15.93;12.00;;;;;;;12.62;47.85;101342.31;5032783;28;20120;-63
2022/03/13 01:27:09;;;;;;;15.65;12.00;;;;;;;12.65;47.55;101332.56;5032902;28;20060;-63
2022/03/13 01:29:34;;;;;;;13.07;10.50;;;;;;;12.62;47.55;101333.09;5033914;28;20084;-63
2022/03/13 01:32:00;;;;;;;12.75;10.40;;;;;;;12.61;47.57;101335.03;5032627;28;20523;-63
2022/03/13 01:34:31;;;;;;;16.52;11.82;;;;;;;12.57;47.99;101333.00;5033214;28;20029;-63
2022/03/13 01:36:57;;;;;;;12.48;9.75;;;;;;;12.57;47.80;101333.00;5033730;28;20384;-63
2022/03/13 01:39:22;;;;;;;14.20;9.13;;;;;;;12.52;47.85;101322.63;5032745;28;20108;-63
2022/03/13 01:41:50;;;;;;;13.80;11.35;;;;;;;12.49;47.95;101328.72;5026461;28;20033;-63
2022/03/13 01:44:19;;;;;;;12.80;10.43;;;;;;;12.43;48.22;101319.44;5027276;28;20083;-63
2022/03/13 01:46:45;;;;;;;11.60;8.57;;;;;;;12.44;48.14;101312.78;5028818;28;20036;-64
2022/03/13 01:49:10;;;;;;;13.13;9.20;;;;;;;12.43;48.28;101313.03;5033258;28;20104;-63
2022/03/13 01:51:42;;;;;;;11.13;8.52;;;;;;;12.38;48.39;101308.25;5033725;28;20448;-63
2022/03/13 01:54:14;;;;;;;11.15;9.18;;;;;;;12.35;48.21;101299.56;5032411;28;20465;-63
2022/03/13 01:56:40;;;;;;;10.30;7.22;;;;;;;12.42;48.24;101303.00;5026816;28;20029;-64
2022/03/13 01:59:08;;;;;;;8.98;7.50;;;;;;;12.40;48.65;101303.25;5032893;28;20049;-63
2022/03/13 02:01:34;;;;;;;7.85;6.60;;;;;;;12.37;48.71;101306.53;5032270;28;20049;-63
2022/03/13 02:04:02;;;;;;;10.00;7.63;;;;;;;12.39;48.81;101309.09;5032895;28;20424;-63
2022/03/13 02:06:28;;;;;;;8.48;7.32;;;;;;;12.39;48.95;101303.50;5016313;28;20026;-63
2022/03/13 02:08:55;;;;;;;10.13;7.50;;;;;;;12.36;48.82;101304.84;5031717;28;20431;-63
2022/03/13 02:11:22;;;;;;;8.90;7.15;;;;;;;12.33;48.95;101299.78;5030539;28;20056;-63
2022/03/13 02:13:49;;;;;;;9.85;7.40;;;;;;;12.31;48.89;101293.66;5016419;28;20021;-64
2022/03/13 02:16:18;;;;;;;9.43;7.50;;;;;;;12.30;48.96;101294.75;5033454;28;20380;-63
2022/03/13 02:18:50;;;;;;;8.95;7.63;;;;;;;12.28;48.88;101292.22;5033422;28;20021;-63
2022/03/13 02:21:16;;;;;;;9.50;7.43;;;;;;;12.28;48.95;101291.38;5032160;28;20029;-63
2022/03/13 02:23:42;;;;;;;10.05;8.07;;;;;;;12.28;48.94;101289.41;5032748;28;20041;-64
2022/03/13 02:26:08;;;;;;;10.50;8.73;;;;;;;12.28;49.15;101296.94;5029966;28;20033;-63
2022/03/13 02:28:37;;;;;;;13.30;9.45;;;;;;;12.27;49.06;101304.44;5016716;28;20055;-63
2022/03/13 02:31:16;;;;;;;11.80;9.38;;;;;;;12.23;49.24;101300.47;5032491;28;20037;-63
2022/03/13 02:33:41;;;;;;;13.50;10.32;;;;;;;12.22;48.92;101292.38;5032316;28;20048;-64
2022/03/13 02:36:23;;;;;;;13.48;9.85;;;;;;;12.20;49.00;101306.53;5031501;28;20369;-64
2022/03/13 02:38:51;;;;;;;12.30;10.13;;;;;;;12.20;49.17;101303.75;5027429;28;20927;-64
2022/03/13 02:41:17;;;;;;;13.48;10.13;;;;;;;12.20;48.76;101297.34;5026575;28;20044;-62
2022/03/13 02:43:42;;;;;;;13.70;10.38;;;;;;;12.18;49.21;101292.06;5031381;28;20044;-63
2022/03/13 02:46:22;;;;;;;14.90;11.00;;;;;;;12.22;48.88;101293.25;5022897;28;20025;-62
2022/03/13 02:48:48;;;;;;;13.88;9.88;;;;;;;12.20;49.03;101289.00;5030948;28;20029;-63
2022/03/13 02:51:14;;;;;;;12.88;10.93;;;;;;;12.18;49.11;101289.28;5031199;28;20029;-63
2022/03/13 02:53:40;;;;;;;12.85;10.70;;;;;;;12.18;49.88;101286.50;5031419;28;20091;-62
2022/03/13 02:56:06;;;;;;;12.98;10.60;;;;;;;12.12;50.23;101295.00;5030692;28;20126;-63
2022/03/13 02:58:32;;;;;;;13.02;10.48;;;;;;;12.09;50.56;101293.56;5031770;28;20048;-62
2022/03/13 03:01:01;;;;;;;14.77;10.75;;;;;;;12.14;49.98;101278.88;5031506;28;20044;-62
2022/03/13 03:03:26;;;;;;;15.02;11.20;;;;;;;12.09;51.03;101278.81;5031175;28;20025;-63
2022/03/13 03:05:52;;;;;;;13.75;11.10;;;;;;;12.12;51.03;101278.31;5031721;28;20038;-63
2022/03/13 03:08:18;;;;;;;15.60;12.07;;;;;;;12.07;50.95;101273.50;5018032;28;20444;-63
2022/03/13 03:10:44;;;;;;;14.80;11.23;;;;;;;12.03;51.22;101273.16;5028942;28;20357;-64
2022/03/13 03:13:11;;;;;;;15.07;12.07;;;;;;;12.07;51.04;101269.88;5031829;28;20033;-63
2022/03/13 03:15:38;;;;;;;17.98;12.68;;;;;;;12.01;51.61;101268.94;5029766;28;20443;-63
2022/03/13 03:18:04;;;;;;;16.45;12.50;;;;;;;12.04;51.31;101274.00;5031303;28;20775;-63
2022/03/13 03:20:31;;;;;;;15.77;12.38;;;;;;;12.01;51.86;101268.94;5030927;28;20032;-62
2022/03/13 03:22:57;;;;;;;16.15;12.82;;;;;;;12.03;52.09;101267.59;5031556;28;20021;-63
2022/03/13 03:25:24;;;;;;;14.80;12.05;;;;;;;12.01;51.98;101269.78;5027453;28;20392;-62
2022/03/13 03:27:51;;;;;;;16.15;12.98;;;;;;;12.02;51.82;101268.69;5031354;28;20032;-62
2022/03/13 03:30:21;;;;;;;17.35;12.98;;;;;;;12.01;52.30;101269.78;5030913;28;20392;-62
2022/03/13 03:32:47;;;;;;;16.25;12.15;;;;;;;12.00;52.84;101261.69;5030858;28;20464;-63
2022/03/13 03:35:13;;;;;;;16.60;12.82;;;;;;;11.99;52.04;101255.28;5031556;28;20022;-62
2022/03/13 03:37:38;;;;;;;16.85;12.75;;;;;;;11.97;52.76;101263.03;5029690;28;20056;-63
2022/03/13 03:40:05;;;;;;;18.67;12.70;;;;;;;11.91;53.11;101261.28;5028431;28;20027;-63
2022/03/13 03:42:31;;;;;;;16.63;13.50;;;;;;;11.90;53.71;101262.34;5031079;28;20041;-62
2022/03/13 03:44:56;;;;;;;16.95;12.27;;;;;;;11.92;53.94;101262.13;5029398;28;20032;-62
2022/03/13 03:47:21;;;;;;;18.45;12.80;;;;;;;11.93;53.89;101255.44;5030574;28;20128;-62
2022/03/13 03:49:47;;;;;;;17.35;13.80;;;;;;;11.94;53.30;101268.25;5031104;28;20082;-62
2022/03/13 03:52:12;;;;;;;21.13;14.25;;;;;;;11.93;53.22;101256.28;5030431;28;20067;-63
2022/03/13 03:54:40;;;;;;;16.48;13.45;;;;;;;11.89;54.27;101255.09;5031060;28;20044;-62
2022/03/13 03:57:05;;;;;;;16.58;13.82;;;;;;;11.90;53.38;101261.50;5030559;28;20741;-63
2022/03/13 03:59:31;;;;;;;17.55;14.30;;;;;;;11.92;53.27;101256.56;5030081;28;20060;-63
2022/03/13 04:01:59;;;;;;;19.95;15.95;;;;;;;11.91;52.87;101257.66;5028158;28;20111;-63
2022/03/13 04:04:24;;;;;;;19.80;14.75;;;;;;;11.86;53.28;101254.75;5030762;28;20029;-63
2022/03/13 04:06:53;;;;;;;22.50;15.93;;;;;;;11.89;53.63;101254.25;5021192;28;20569;-63
2022/03/13 04:09:19;;;;;;;20.63;15.63;;;;;;;11.83;53.15;101253.34;5029048;28;20025;-63
2022/03/13 04:11:47;;;;;;;20.05;16.15;;;;;;;11.90;53.12;101248.44;5030799;28;20044;-63
2022/03/13 04:14:14;;;;;;;20.73;16.35;;;;;;;11.85;53.20;101241.97;5029054;28;20100;-63
2022/03/13 04:16:40;;;;;;;21.25;16.17;;;;;;;11.84;52.48;101245.84;5031078;28;20037;-63
2022/03/13 04:19:06;;;;;;;21.63;17.15;;;;;;;11.77;53.23;101248.75;5025637;28;20044;-63
2022/03/13 04:21:31;;;;;;;22.70;16.90;;;;;;;11.74;52.85;101246.47;5025505;28;20029;-63
2022/03/13 04:23:56;;;;;;;25.63;17.50;;;;;;;11.76;52.50;101250.69;5029497;28;20056;-63
2022/03/13 04:26:22;;;;;;;21.92;16.88;;;;;;;11.77;52.53;101254.31;5030588;28;20342;-63
2022/03/13 04:28:49;;;;;;;23.85;17.30;;;;;;;11.78;52.67;101253.22;5029773;28;20388;-63
2022/03/13 04:31:18;;;;;;;24.88;18.17;;;;;;;11.71;52.72;101258.94;5029370;28;20021;-63
2022/03/13 04:33:47;;;;;;;24.38;18.05;;;;;;;11.70;52.68;101256.41;5030707;28;20099;-63
2022/03/13 04:36:14;;;;;;;23.10;19.05;;;;;;;11.67;52.83;101245.78;5029444;28;20463;-63
2022/03/13 04:38:40;;;;;;;26.75;20.05;;;;;;;11.70;53.04;101253.63;5028154;28;20034;-63
2022/03/13 04:41:06;;;;;;;24.02;18.65;;;;;;;11.65;53.13;101253.53;5029759;28;20033;-63
2022/03/13 04:43:31;;;;;;;25.55;18.48;;;;;;;11.69;53.33;101243.59;5029268;28;20036;-63
2022/03/13 04:45:56;;;;;;;26.65;19.95;;;;;;;11.63;54.02;101244.59;5029734;28;20034;-63
2022/03/13 04:48:22;;;;;;;24.17;19.65;;;;;;;11.62;54.75;101248.47;5018166;28;20107;-63
2022/03/13 04:50:47;;;;;;;25.95;19.30;;;;;;;11.61;54.99;101249.56;5029827;28;20033;-63
2022/03/13 04:53:13;;;;;;;25.80;20.10;;;;;;;11.61;55.46;101249.56;5027838;28;20057;-62
2022/03/13 04:55:38;;;;;;;28.40;20.55;;;;;;;11.43;55.92;101251.47;5029296;28;20048;-63
2022/03/13 04:58:04;;;;;;;25.10;19.67;;;;;;;11.43;55.62;101254.25;5029367;28;20041;-63
2022/03/13 05:00:30;;;;;;;27.80;19.98;;;;;;;11.46;54.96;101256.53;5020376;28;20030;-63
2022/03/13 05:02:55;;;;;;;28.17;20.50;;;;;;;11.42;55.53;101243.38;5028075;28;20064;-63
2022/03/13 05:05:22;;;;;;;25.92;19.63;;;;;;;11.41;55.04;101242.53;5030372;28;20841;-63
2022/03/13 05:07:48;;;;;;;25.67;19.95;;;;;;;11.35;55.12;101240.75;5016533;28;20025;-63
2022/03/13 05:10:15;;;;;;;30.05;21.52;;;;;;;11.30;55.09;101249.00;5027306;28;20040;-62
2022/03/13 05:12:41;;;;;;;25.30;20.38;;;;;;;11.29;54.96;101244.53;5030183;28;20349;-63
2022/03/13 05:15:07;;;;;;;28.67;20.23;;;;;;;11.27;55.21;101236.44;5030305;28;20444;-63
2022/03/13 05:17:32;;;;;;;26.13;20.17;;;;;;;11.23;54.65;101234.41;5029122;28;20045;-63
2022/03/13 05:20:00;;;;;;;24.85;19.60;;;;;;;11.23;54.58;101231.63;5029691;28;20469;-63
2022/03/13 05:22:26;;;;;;;26.92;19.77;;;;;;;11.20;54.18;101240.44;5029374;28;20042;-63
2022/03/13 05:24:52;;;;;;;28.58;19.83;;;;;;;11.20;54.46;101240.44;5027245;28;20032;-63
2022/03/13 05:27:17;;;;;;;28.73;19.67;;;;;;;11.21;53.81;101237.44;5030149;28;20025;-63
2022/03/13 05:29:46;;;;;;;26.10;20.05;;;;;;;11.19;53.83;101233.22;5029927;28;20108;-63
2022/03/13 05:32:11;;;;;;;24.20;19.17;;;;;;;11.19;53.61;101236.81;5029272;28;20025;-63
2022/03/13 05:34:39;;;;;;;24.02;18.88;;;;;;;11.19;53.31;101233.22;5029754;28;20036;-63
2022/03/13 05:37:06;;;;;;;24.25;18.60;;;;;;;11.17;53.52;101238.19;5029464;28;20112;-63
2022/03/13 05:39:31;;;;;;;23.20;17.65;;;;;;;11.19;53.31;101247.09;5022821;28;20559;-63
2022/03/13 05:41:57;;;;;;;24.77;19.50;;;;;;;11.13;53.47;101240.63;5025032;28;20148;-62
2022/03/13 05:44:24;;;;;;;25.48;18.75;;;;;;;11.18;52.90;101237.94;5032051;28;20075;-63
2022/03/13 05:46:49;;;;;;;24.30;18.63;;;;;;;11.18;52.80;101248.22;5023382;28;20424;-63
2022/03/13 05:49:17;;;;;;;23.00;18.80;;;;;;;11.18;52.81;101243.50;5033607;28;20025;-63
2022/03/13 05:51:43;;;;;;;24.80;17.90;;;;;;;11.19;52.88;101242.38;5033132;28;20044;-63
2022/03/13 05:54:11;;;;;;;26.90;18.42;;;;;;;11.13;52.84;101253.66;5033233;28;20435;-63
2022/03/13 05:56:36;;;;;;;24.52;18.83;;;;;;;11.10;53.00;101251.38;5030759;28;20021;-63
2022/03/13 05:59:02;;;;;;;21.80;17.60;;;;;;;11.11;53.07;101242.78;5031574;28;20055;-63
2022/03/13 06:01:27;;;;;;;23.40;18.52;;;;;;;11.12;52.46;101254.75;5030920;28;20040;-62
2022/03/13 06:03:53;;;;;;;23.15;17.67;;;;;;;11.12;52.25;101250.06;5032877;28;20061;-63
2022/03/13 06:06:18;;;;;;;26.27;18.75;;;;;;;11.12;52.18;101247.28;5032230;28;20029;-63
2022/03/13 06:08:44;;;;;;;22.85;17.60;;;;;;;11.12;52.14;101250.06;5032607;28;20065;-62
2022/03/13 06:11:09;;;;;;;25.73;18.17;;;;;;;11.04;52.01;101254.06;5032540;28;20033;-63
2022/03/13 06:13:35;;;;;;;21.55;16.75;;;;;;;11.06;52.40;101260.19;5032118;28;20029;-62
2022/03/13 06:16:00;;;;;;;24.98;18.73;;;;;;;11.08;52.08;101254.38;5033034;28;20252;-63
2022/03/13 06:18:31;;;;;;;22.17;17.63;;;;;;;11.07;52.33;101255.47;5031950;28;20045;-63
2022/03/13 06:20:57;;;;;;;25.70;17.55;;;;;;;11.00;51.50;101246.44;5032317;28;20022;-63
2022/03/13 06:23:25;;;;;;;22.73;17.27;;;;;;;10.99;51.43;101245.59;5032185;28;20040;-63
2022/03/13 06:25:50;;;;;;;22.17;17.23;;;;;;;10.97;51.86;101253.34;5029467;28;20461;-63
2022/03/13 06:28:19;;;;;;;22.65;17.10;;;;;;;10.97;52.17;101250.56;5031010;28;20034;-63
2022/03/13 06:30:44;;;;;;;21.17;17.38;;;;;;;10.98;51.58;101255.03;5033513;28;20036;-63
2022/03/13 06:33:10;;;;;;;22.27;17.65;;;;;;;11.02;51.62;101255.38;5032982;28;20029;-63
2022/03/13 06:35:35;;;;;;;23.27;17.40;;;;;;;11.02;51.48;101260.94;5031585;28;20044;-64
2022/03/13 06:38:01;;;;;;;25.45;17.08;;;;;;;11.01;51.44;101253.72;5032854;28;20025;-63
2022/03/13 06:40:35;;;;;;;24.63;17.77;;;;;;;11.05;51.52;101261.28;5032453;28;20096;-63
2022/03/13 06:43:00;;;;;;;23.25;17.45;;;;;;;11.02;51.88;101261.78;5031202;28;20065;-63
2022/03/13 06:45:26;;;;;;;22.80;17.35;;;;;;;11.03;51.47;101254.28;5032481;28;20100;-63
2022/03/13 06:47:57;;;;;;;22.48;17.83;;;;;;;11.00;51.39;101244.53;5032884;28;20038;-62
2022/03/13 06:50:23;;;;;;;20.38;17.15;;;;;;;10.98;51.88;101248.63;5032363;28;20046;-63
2022/03/13 06:52:50;;;;;;;25.27;17.15;;;;;;;10.99;51.33;101251.16;5032706;28;20025;-63
2022/03/13 06:55:17;;;;;;;21.88;17.63;;;;;;;10.97;51.31;101250.56;5029532;28;20127;-63
2022/03/13 06:57:43;;;;;;;23.13;17.25;;;;;;;10.99;51.14;101253.94;5026739;28;20037;-63
2022/03/13 07:00:11;;;;;;;22.45;18.00;;;;;;;10.98;51.27;101252.25;5032430;28;20563;-62
2022/03/13 07:02:36;;;;;;;25.13;19.40;;;;;;;10.89;51.83;101256.53;5031005;28;20043;-64
2022/03/13 07:05:02;;;;;;;46.35;28.75;;;;;;;10.93;51.14;101254.94;5031966;28;20100;-63
2022/03/13 07:07:28;;;;;;;34.63;23.25;;;;;;;10.97;50.84;101258.91;5030636;28;20075;-62
2022/03/13 07:09:55;;;;;;;24.55;18.02;;;;;;;10.90;51.69;101258.19;5028712;28;20018;-62
2022/03/13 07:12:20;;;;;;;33.80;21.80;;;;;;;10.97;50.97;101249.75;5031605;28;20116;-63
2022/03/13 07:14:46;;;;;;;27.98;19.42;;;;;;;11.00;50.95;101250.09;5031742;28;20108;-63
2022/03/13 07:17:13;;;;;;;27.10;19.58;;;;;;;10.94;51.23;101253.84;5013735;28;20117;-63
2022/03/13 07:19:40;;;;;;;25.48;17.83;;;;;;;10.96;51.12;101259.97;5026596;28;20048;-64
2022/03/13 07:22:06;;;;;;;25.83;17.98;;;;;;;10.95;51.50;101255.53;5032356;28;20037;-63
2022/03/13 07:24:31;;;;;;;22.45;17.63;;;;;;;10.98;51.35;101254.19;5031426;28;20480;-63
2022/03/13 07:26:57;;;;;;;21.08;17.65;;;;;;;10.97;50.91;101246.97;5031481;28;20029;-63
2022/03/13 07:29:22;;;;;;;22.00;17.00;;;;;;;10.96;50.75;101246.09;5031781;28;20468;-63
2022/03/13 07:31:47;;;;;;;23.02;17.67;;;;;;;10.96;51.35;101251.63;5030755;28;20040;-62
2022/03/13 07:34:12;;;;;;;22.48;16.90;;;;;;;11.01;51.86;101245.38;5031556;28;20048;-62
2022/03/13 07:36:39;;;;;;;22.90;16.67;;;;;;;10.99;51.13;101250.31;5027717;28;20421;-63
2022/03/13 07:39:10;;;;;;;25.92;18.10;;;;;;;10.99;51.03;101255.88;5030441;28;20037;-62
2022/03/13 07:41:35;;;;;;;22.08;16.75;;;;;;;11.00;50.59;101247.31;5031834;28;20053;-62
2022/03/13 07:44:04;;;;;;;22.48;16.35;;;;;;;11.04;50.61;101237.41;5030946;28;20459;-62
2022/03/13 07:46:29;;;;;;;23.80;16.27;;;;;;;11.06;50.98;101251.03;5032507;28;20035;-63
2022/03/13 07:48:55;;;;;;;34.55;24.40;;;;;;;11.07;50.76;101241.59;5030938;28;20478;-63
2022/03/13 07:51:23;;;;;;;23.60;18.02;;;;;;;11.05;50.30;101239.06;5025907;28;20029;-62
2022/03/13 07:53:48;;;;;;;23.30;19.00;;;;;;;11.02;51.05;101242.34;5025880;28;20017;-62
2022/03/13 07:56:23;;;;;;;25.30;19.13;;;;;;;11.04;51.31;101248.50;5028689;28;20080;-63
2022/03/13 07:58:49;;;;;;;25.67;19.08;;;;;;;11.12;51.23;101243.63;5020034;28;20041;-63
2022/03/13 08:01:14;;;;;;;23.48;17.77;;;;;;;11.10;50.46;101249.44;5030615;28;20033;-63
2022/03/13 08:03:44;;;;;;;21.63;17.17;;;;;;;11.17;50.75;101238.19;5026954;28;20622;-63
2022/03/13 08:06:10;;;;;;;21.65;17.42;;;;;;;11.14;50.57;101236.75;5024415;28;20046;-62
2022/03/13 08:08:38;;;;;;;25.20;17.02;;;;;;;11.18;50.63;101253.75;5023222;28;20116;-61
2022/03/13 08:11:03;;;;;;;23.88;17.35;;;;;;;11.20;50.12;101246.00;5022942;28;20453;-62
2022/03/13 08:13:29;;;;;;;23.27;17.40;;;;;;;11.18;50.58;101249.03;5025005;28;20068;-62
2022/03/13 08:15:54;;;;;;;23.45;17.17;;;;;;;11.21;50.40;101247.72;5026119;28;20036;-62
2022/03/13 08:18:20;;;;;;;22.85;17.23;;;;;;;11.24;50.35;101242.50;5025535;28;20018;-62
2022/03/13 08:20:46;;;;;;;20.48;16.48;;;;;;;11.28;50.70;101238.13;5024031;28;20025;-62
2022/03/13 08:23:11;;;;;;;23.00;17.52;;;;;;;11.26;50.14;101245.03;5026941;28;20025;-62
2022/03/13 08:25:36;;;;;;;22.33;16.98;;;;;;;11.27;50.40;101239.22;5024670;28;20060;-62
2022/03/13 08:28:02;;;;;;;23.50;16.67;;;;;;;11.27;50.41;101235.59;5024163;28;20025;-62
2022/03/13 08:30:27;;;;;;;21.60;16.92;;;;;;;11.35;50.57;101237.13;5029362;28;20035;-61
2022/03/13 08:32:54;;;;;;;22.35;17.27;;;;;;;11.37;50.50;101241.34;5020254;28;20049;-62
2022/03/13 08:35:20;;;;;;;22.13;17.25;;;;;;;11.42;50.21;101247.00;5022182;28;20120;-62
2022/03/13 08:37:45;;;;;;;24.02;18.15;;;;;;;11.48;50.28;101236.84;5025846;28;20025;-61
2022/03/13 08:40:14;;;;;;;21.92;17.77;;;;;;;11.51;49.93;101236.31;5031980;28;20078;-62
2022/03/13 08:42:39;;;;;;;22.35;18.45;;;;;;;11.59;50.17;101241.47;5029508;28;20027;-61
2022/03/13 08:45:05;;;;;;;21.83;17.13;;;;;;;11.65;49.86;101240.47;5015146;28;20029;-61
2022/03/13 08:47:30;;;;;;;25.08;19.00;;;;;;;11.73;49.97;101239.22;5025866;28;20033;-61
2022/03/13 08:49:58;;;;;;;22.85;18.17;;;;;;;11.85;50.33;101248.38;5021601;28;20511;-62
2022/03/13 08:52:23;;;;;;;20.65;16.80;;;;;;;12.03;50.40;101242.56;5020869;28;20037;-61
2022/03/13 08:54:49;;;;;;;25.20;17.45;;;;;;;12.18;49.48;101229.97;5017536;28;20726;-61
2022/03/13 08:57:14;;;;;;;20.60;16.67;;;;;;;12.45;49.93;101235.66;5023177;28;20073;-61
2022/03/13 08:59:42;;;;;;;23.05;18.05;;;;;;;12.59;49.94;101238.94;5020200;28;20040;-61
2022/03/13 09:02:09;;;;;;;24.88;18.67;;;;;;;12.66;47.78;101222.88;5026316;28;20030;-61
2022/03/13 09:04:35;;;;;;;21.90;17.52;;;;;;;12.80;47.73;101224.16;5019925;28;20191;-61
2022/03/13 09:07:01;;;;;;;24.25;19.05;;;;;;;12.88;47.46;101223.72;5016537;28;20124;-61
2022/03/13 09:09:27;;;;;;;21.92;18.35;;;;;;;13.02;47.48;101225.00;5019483;28;20029;-61
2022/03/13 09:11:59;;;;;;;26.65;20.25;;;;;;;13.16;46.99;101219.84;5016762;28;20026;-60
2022/03/13 09:14:26;;;;;;;25.38;19.27;;;;;;;13.31;46.42;101227.59;5024188;28;20035;-60
2022/03/13 09:16:51;;;;;;;25.00;18.77;;;;;;;13.44;46.45;101218.81;5027816;28;20033;-59
2022/03/13 09:19:16;;;;;;;24.35;18.02;;;;;;;13.54;46.12;101225.59;5030771;28;20038;-59
2022/03/13 09:21:44;;;;;;;23.95;17.92;;;;;;;13.56;46.13;101217.78;5031535;28;20079;-59
2022/03/13 09:24:10;;;;;;;23.40;18.30;;;;;;;13.70;45.89;101222.69;5030880;28;20033;-60
2022/03/13 09:26:39;;;;;;;25.02;19.20;;;;;;;13.79;45.42;101217.44;5021180;28;20018;-59
2022/03/13 09:29:04;;;;;;;23.60;18.73;;;;;;;13.87;44.52;101219.78;5025055;28;20029;-60
2022/03/13 09:31:30;;;;;;;23.27;17.73;;;;;;;13.92;45.06;101216.19;5026623;28;20025;-62
2022/03/13 09:33:55;;;;;;;25.33;19.50;;;;;;;13.95;44.78;101210.91;5028781;28;20034;-60
2022/03/13 09:36:20;;;;;;;22.40;17.80;;;;;;;14.04;44.76;101218.78;5025586;28;20029;-60
2022/03/13 09:38:46;;;;;;;21.75;17.63;;;;;;;14.08;44.94;101225.53;5024720;28;20384;-61
2022/03/13 09:41:16;;;;;;;23.42;18.10;;;;;;;14.12;44.73;101219.13;5025238;28;20029;-59
2022/03/13 09:43:41;;;;;;;24.95;18.20;;;;;;;14.24;44.13;101218.94;5025660;28;20503;-60
2022/03/13 09:46:07;;;;;;;22.30;16.52;;;;;;;14.42;45.04;101218.50;5029406;28;20018;-58
2022/03/13 09:48:36;;;;;;;24.20;17.58;;;;;;;14.52;44.04;101216.91;5026866;28;20033;-60
2022/03/13 09:51:07;;;;;;;21.67;16.35;;;;;;;14.81;45.61;101223.75;5026218;28;20483;-59
2022/03/13 09:53:34;;;;;;;17.70;12.65;;;;;;;15.04;44.61;101205.66;5025453;28;20073;-60
2022/03/13 09:56:03;;;;;;;17.85;13.20;;;;;;;15.16;43.54;101208.22;5023761;28;20153;-60
2022/03/13 09:58:29;;;;;;;19.27;14.25;;;;;;;15.13;43.16;101208.75;5031360;28;20121;-61
2022/03/13 10:00:56;;;;;;;20.70;14.80;;;;;;;15.13;43.23;101205.97;5024383;28;20384;-61
2022/03/13 10:03:22;;;;;;;18.73;14.57;;;;;;;15.16;43.17;101208.22;5026534;28;20057;-60
2022/03/13 10:05:49;;;;;;;19.85;13.07;;;;;;;15.38;43.96;101208.00;5028571;28;20449;-58
2022/03/13 10:08:16;;;;;;;19.95;14.00;;;;;;;15.31;42.59;101210.22;5024568;28;20124;-60
2022/03/13 10:10:44;;;;;;;17.60;12.43;;;;;;;15.52;43.50;101205.50;5017184;28;20140;-60
2022/03/13 10:13:13;;;;;;;17.85;14.65;;;;;;;15.50;42.50;101204.97;5023403;28;20037;-60
2022/03/13 10:15:41;;;;;;;18.10;13.82;;;;;;;15.55;42.23;101193.75;5024294;28;20037;-61
2022/03/13 10:18:18;;;;;;;16.83;11.27;;;;;;;15.78;42.99;101201.66;5026083;28;20053;-61
2022/03/13 10:20:44;;;;;;;14.88;10.80;;;;;;;15.99;42.88;101194.06;5024831;28;20144;-63
2022/03/13 10:23:15;;;;;;;14.02;10.82;;;;;;;16.08;42.21;101185.97;5027260;28;20037;-62
2022/03/13 10:25:42;;;;;;;15.38;11.32;;;;;;;16.17;42.08;101178.66;5017990;28;20041;-61
2022/03/13 10:28:12;;;;;;;15.60;11.77;;;;;;;16.29;41.43;101176.41;5026451;28;20029;-62
2022/03/13 10:30:41;;;;;;;16.33;12.07;;;;;;;16.23;40.98;101177.53;5026630;28;20034;-61
2022/03/13 10:33:08;;;;;;;15.95;12.20;;;;;;;16.26;40.99;101176.94;5026789;28;20039;-61
2022/03/13 10:35:36;;;;;;;16.85;13.27;;;;;;;16.13;40.05;101178.38;5028864;28;20033;-62
2022/03/13 10:38:16;;;;;;;17.45;12.88;;;;;;;16.19;41.44;101170.81;5034653;28;20041;-61
2022/03/13 10:40:42;;;;;;;17.25;12.68;;;;;;;16.37;41.07;101166.56;5015975;28;20041;-62
2022/03/13 10:43:08;;;;;;;15.23;11.55;;;;;;;16.47;41.10;101180.56;5028196;28;20075;-61
2022/03/13 10:45:39;;;;;;;15.88;13.40;;;;;;;16.36;40.42;101173.31;5028523;28;20373;-62
2022/03/13 10:48:32;;;;;;;12.88;10.60;;;;;;;16.53;41.49;101172.97;5029579;28;20040;-63
2022/03/13 10:51:03;;;;;;;13.07;10.05;;;;;;;16.66;40.47;101166.75;5032146;28;20033;-63
2022/03/13 10:53:30;;;;;;;13.27;10.98;;;;;;;16.78;40.57;101167.31;5030034;28;20432;-63
2022/03/13 10:56:09;;;;;;;14.93;12.20;;;;;;;16.83;40.71;101163.63;5044607;28;20503;-66
2022/03/13 10:58:40;;;;;;;15.43;12.23;;;;;;;16.72;40.57;101168.41;5024676;28;20041;-64
2022/03/13 11:01:13;;;;;;;19.83;14.10;;;;;;;16.49;40.50;101172.69;5028112;28;20033;-62
2022/03/13 11:03:54;;;;;;;13.45;11.57;;;;;;;16.65;41.10;101159.47;5028019;28;20033;-62
2022/03/13 11:06:24;;;;;;;16.95;11.38;;;;;;;16.77;40.65;101165.63;5027730;28;20030;-61
2022/03/13 11:08:54;;;;;;;16.48;13.07;;;;;;;16.48;39.88;101167.38;5025418;28;20022;-62
2022/03/13 11:11:24;;;;;;;15.45;11.32;;;;;;;16.44;39.56;101165.16;5029538;28;20048;-63